sensor_id;sensor_type;location;lat;lon;timestamp;temperature;humidity
43808;DHT22;29438;50.664;10.098;2023-12-20T00:00:02;2.70;95.40
43808;DHT22;29438;50.664;10.098;2023-12-20T00:02:28;2.70;95.40
43808;DHT22;29438;50.664;10.098;2023-12-20T00:04:53;2.70;95.40
43808;DHT22;29438;50.664;10.098;2023-12-20T00:07:19;2.70;95.40
43808;DHT22;29438;50.664;10.098;2023-12-20T00:09:44;2.70;95.40
43808;DHT22;29438;50.664;10.098;2023-12-20T00:12:10;2.70;95.40
43808;DHT22;29438;50.664;10.098;2023-12-20T00:14:36;2.70;95.40
43808;DHT22;29438;50.664;10.098;2023-12-20T00:17:01;2.70;95.40
43808;DHT22;29438;50.664;10.098;2023-12-20T00:19:27;2.70;95.30
43808;DHT22;29438;50.664;10.098;2023-12-20T00:21:52;2.70;95.40
43808;DHT22;29438;50.664;10.098;2023-12-20T00:24:18;2.70;95.40
43808;DHT22;29438;50.664;10.098;2023-12-20T00:26:43;2.70;95.40
43808;DHT22;29438;50.664;10.098;2023-12-20T00:29:09;2.70;95.50
43808;DHT22;29438;50.664;10.098;2023-12-20T00:31:34;2.70;95.50
43808;DHT22;29438;50.664;10.098;2023-12-20T00:34:00;2.80;95.50
43808;DHT22;29438;50.664;10.098;2023-12-20T00:36:25;2.70;95.50
43808;DHT22;29438;50.664;10.098;2023-12-20T00:38:51;2.70;95.40
43808;DHT22;29438;50.664;10.098;2023-12-20T00:41:17;2.80;95.50
43808;DHT22;29438;50.664;10.098;2023-12-20T00:43:42;2.80;95.50
43808;DHT22;29438;50.664;10.098;2023-12-20T00:46:08;2.70;95.50
43808;DHT22;29438;50.664;10.098;2023-12-20T00:48:33;2.80;95.50
43808;DHT22;29438;50.664;10.098;2023-12-20T00:50:59;2.80;95.50
43808;DHT22;29438;50.664;10.098;2023-12-20T00:53:24;2.80;95.40
43808;DHT22;29438;50.664;10.098;2023-12-20T00:55:50;2.80;95.50
43808;DHT22;29438;50.664;10.098;2023-12-20T00:58:15;2.80;95.40
43808;DHT22;29438;50.664;10.098;2023-12-20T01:00:41;2.80;95.40
43808;DHT22;29438;50.664;10.098;2023-12-20T01:03:08;2.80;95.50
43808;DHT22;29438;50.664;10.098;2023-12-20T01:05:33;2.80;95.50
43808;DHT22;29438;50.664;10.098;2023-12-20T01:07:59;2.80;95.40
43808;DHT22;29438;50.664;10.098;2023-12-20T01:10:25;2.80;95.40
43808;DHT22;29438;50.664;10.098;2023-12-20T01:12:53;2.80;95.40
43808;DHT22;29438;50.664;10.098;2023-12-20T01:15:18;2.80;95.40
43808;DHT22;29438;50.664;10.098;2023-12-20T01:17:44;2.80;95.40
43808;DHT22;29438;50.664;10.098;2023-12-20T01:20:10;2.80;95.50
43808;DHT22;29438;50.664;10.098;2023-12-20T01:22:35;2.80;95.50
43808;DHT22;29438;50.664;10.098;2023-12-20T01:25:01;2.80;95.40
43808;DHT22;29438;50.664;10.098;2023-12-20T01:27:27;2.80;95.50
43808;DHT22;29438;50.664;10.098;2023-12-20T01:29:53;2.80;95.40
43808;DHT22;29438;50.664;10.098;2023-12-20T01:32:18;2.80;95.40
43808;DHT22;29438;50.664;10.098;2023-12-20T01:34:44;2.80;95.40
43808;DHT22;29438;50.664;10.098;2023-12-20T01:37:09;2.80;95.50
43808;DHT22;29438;50.664;10.098;2023-12-20T01:39:35;2.80;95.50
43808;DHT22;29438;50.664;10.098;2023-12-20T01:42:00;2.80;95.50
43808;DHT22;29438;50.664;10.098;2023-12-20T01:44:26;2.80;95.50
43808;DHT22;29438;50.664;10.098;2023-12-20T01:46:52;2.80;95.50
43808;DHT22;29438;50.664;10.098;2023-12-20T01:49:17;2.90;95.40
43808;DHT22;29438;50.664;10.098;2023-12-20T01:51:44;2.90;95.40
43808;DHT22;29438;50.664;10.098;2023-12-20T01:54:10;2.90;95.50
43808;DHT22;29438;50.664;10.098;2023-12-20T01:56:35;2.90;95.40
43808;DHT22;29438;50.664;10.098;2023-12-20T01:59:01;2.90;95.50
43808;DHT22;29438;50.664;10.098;2023-12-20T02:01:27;3.00;95.50
43808;DHT22;29438;50.664;10.098;2023-12-20T02:03:54;2.90;95.50
43808;DHT22;29438;50.664;10.098;2023-12-20T02:06:21;3.00;95.50
43808;DHT22;29438;50.664;10.098;2023-12-20T02:08:47;2.90;95.50
43808;DHT22;29438;50.664;10.098;2023-12-20T02:11:12;3.00;95.50
43808;DHT22;29438;50.664;10.098;2023-12-20T02:13:38;3.00;95.60
43808;DHT22;29438;50.664;10.098;2023-12-20T02:16:03;3.00;95.60
43808;DHT22;29438;50.664;10.098;2023-12-20T02:18:29;3.00;95.60
43808;DHT22;29438;50.664;10.098;2023-12-20T02:20:55;3.00;95.60
43808;DHT22;29438;50.664;10.098;2023-12-20T02:23:21;3.10;95.70
43808;DHT22;29438;50.664;10.098;2023-12-20T02:25:47;3.00;95.70
43808;DHT22;29438;50.664;10.098;2023-12-20T02:28:13;3.10;95.70
43808;DHT22;29438;50.664;10.098;2023-12-20T02:30:38;3.10;95.70
43808;DHT22;29438;50.664;10.098;2023-12-20T02:33:07;3.10;95.80
43808;DHT22;29438;50.664;10.098;2023-12-20T02:35:34;3.20;95.80
43808;DHT22;29438;50.664;10.098;2023-12-20T02:37:59;3.20;95.80
43808;DHT22;29438;50.664;10.098;2023-12-20T02:40:25;3.20;95.70
43808;DHT22;29438;50.664;10.098;2023-12-20T02:42:50;3.20;95.80
43808;DHT22;29438;50.664;10.098;2023-12-20T02:45:15;3.20;95.70
43808;DHT22;29438;50.664;10.098;2023-12-20T02:47:41;3.30;95.70
43808;DHT22;29438;50.664;10.098;2023-12-20T02:50:07;3.30;95.70
43808;DHT22;29438;50.664;10.098;2023-12-20T02:52:32;3.30;95.80
43808;DHT22;29438;50.664;10.098;2023-12-20T02:54:58;3.30;95.80
43808;DHT22;29438;50.664;10.098;2023-12-20T02:57:23;3.30;95.80
43808;DHT22;29438;50.664;10.098;2023-12-20T02:59:49;3.30;95.80
43808;DHT22;29438;50.664;10.098;2023-12-20T03:02:14;3.30;95.80
43808;DHT22;29438;50.664;10.098;2023-12-20T03:04:40;3.40;95.80
43808;DHT22;29438;50.664;10.098;2023-12-20T03:07:05;3.40;95.80
43808;DHT22;29438;50.664;10.098;2023-12-20T03:09:31;3.40;95.90
43808;DHT22;29438;50.664;10.098;2023-12-20T03:11:57;3.30;95.90
43808;DHT22;29438;50.664;10.098;2023-12-20T03:14:22;3.40;95.90
43808;DHT22;29438;50.664;10.098;2023-12-20T03:16:51;3.40;95.90
43808;DHT22;29438;50.664;10.098;2023-12-20T03:19:17;3.40;95.90
43808;DHT22;29438;50.664;10.098;2023-12-20T03:21:43;3.50;96.00
43808;DHT22;29438;50.664;10.098;2023-12-20T03:24:08;3.50;96.00
43808;DHT22;29438;50.664;10.098;2023-12-20T03:26:34;3.50;95.90
43808;DHT22;29438;50.664;10.098;2023-12-20T03:28:59;3.50;95.90
43808;DHT22;29438;50.664;10.098;2023-12-20T03:31:25;3.50;96.00
43808;DHT22;29438;50.664;10.098;2023-12-20T03:33:50;3.60;96.00
43808;DHT22;29438;50.664;10.098;2023-12-20T03:36:17;3.50;96.00
43808;DHT22;29438;50.664;10.098;2023-12-20T03:38:42;3.50;96.00
43808;DHT22;29438;50.664;10.098;2023-12-20T03:41:08;3.60;96.00
43808;DHT22;29438;50.664;10.098;2023-12-20T03:43:33;3.60;96.00
43808;DHT22;29438;50.664;10.098;2023-12-20T03:45:59;3.60;96.00
43808;DHT22;29438;50.664;10.098;2023-12-20T03:48:25;3.60;96.00
43808;DHT22;29438;50.664;10.098;2023-12-20T03:50:51;3.60;96.00
43808;DHT22;29438;50.664;10.098;2023-12-20T03:53:16;3.60;96.10
43808;DHT22;29438;50.664;10.098;2023-12-20T03:55:42;3.60;96.00
43808;DHT22;29438;50.664;10.098;2023-12-20T03:58:07;3.60;96.00
43808;DHT22;29438;50.664;10.098;2023-12-20T04:00:33;3.50;96.10
43808;DHT22;29438;50.664;10.098;2023-12-20T04:02:58;3.60;96.10
43808;DHT22;29438;50.664;10.098;2023-12-20T04:05:23;3.60;96.10
43808;DHT22;29438;50.664;10.098;2023-12-20T04:07:49;3.60;96.10
43808;DHT22;29438;50.664;10.098;2023-12-20T04:10:15;3.50;96.10
43808;DHT22;29438;50.664;10.098;2023-12-20T04:12:41;3.50;96.20
43808;DHT22;29438;50.664;10.098;2023-12-20T04:15:07;3.50;96.20
43808;DHT22;29438;50.664;10.098;2023-12-20T04:17:35;3.50;96.10
43808;DHT22;29438;50.664;10.098;2023-12-20T04:20:01;3.50;96.10
43808;DHT22;29438;50.664;10.098;2023-12-20T04:22:26;3.50;96.10
43808;DHT22;29438;50.664;10.098;2023-12-20T04:24:52;3.50;96.10
43808;DHT22;29438;50.664;10.098;2023-12-20T04:27:17;3.50;96.10
43808;DHT22;29438;50.664;10.098;2023-12-20T04:29:43;3.50;96.20
43808;DHT22;29438;50.664;10.098;2023-12-20T04:32:08;3.60;96.20
43808;DHT22;29438;50.664;10.098;2023-12-20T04:34:34;3.60;96.10
43808;DHT22;29438;50.664;10.098;2023-12-20T04:36:59;3.60;96.10
43808;DHT22;29438;50.664;10.098;2023-12-20T04:39:26;3.60;96.10
43808;DHT22;29438;50.664;10.098;2023-12-20T04:41:52;3.70;96.20
43808;DHT22;29438;50.664;10.098;2023-12-20T04:44:18;3.70;96.10
43808;DHT22;29438;50.664;10.098;2023-12-20T04:46:43;3.70;96.10
43808;DHT22;29438;50.664;10.098;2023-12-20T04:49:09;3.70;96.10
43808;DHT22;29438;50.664;10.098;2023-12-20T04:51:35;3.70;96.20
43808;DHT22;29438;50.664;10.098;2023-12-20T04:54:01;3.70;96.20
43808;DHT22;29438;50.664;10.098;2023-12-20T04:56:27;3.70;96.20
43808;DHT22;29438;50.664;10.098;2023-12-20T04:58:52;3.80;96.20
43808;DHT22;29438;50.664;10.098;2023-12-20T05:01:18;3.80;96.20
43808;DHT22;29438;50.664;10.098;2023-12-20T05:03:43;3.80;96.20
43808;DHT22;29438;50.664;10.098;2023-12-20T05:06:10;3.80;96.20
43808;DHT22;29438;50.664;10.098;2023-12-20T05:08:35;3.80;96.20
43808;DHT22;29438;50.664;10.098;2023-12-20T05:11:01;3.80;96.20
43808;DHT22;29438;50.664;10.098;2023-12-20T05:13:27;3.80;96.20
43808;DHT22;29438;50.664;10.098;2023-12-20T05:15:52;3.80;96.20
43808;DHT22;29438;50.664;10.098;2023-12-20T05:18:18;3.80;96.10
43808;DHT22;29438;50.664;10.098;2023-12-20T05:20:43;3.80;95.90
43808;DHT22;29438;50.664;10.098;2023-12-20T05:23:09;3.80;95.50
43808;DHT22;29438;50.664;10.098;2023-12-20T05:25:34;3.70;95.60
43808;DHT22;29438;50.664;10.098;2023-12-20T05:28:00;3.70;95.30
43808;DHT22;29438;50.664;10.098;2023-12-20T05:30:25;3.60;94.90
43808;DHT22;29438;50.664;10.098;2023-12-20T05:32:52;3.50;94.90
43808;DHT22;29438;50.664;10.098;2023-12-20T05:35:17;3.50;94.80
43808;DHT22;29438;50.664;10.098;2023-12-20T05:37:43;3.50;94.80
43808;DHT22;29438;50.664;10.098;2023-12-20T05:40:08;3.50;95.00
43808;DHT22;29438;50.664;10.098;2023-12-20T05:42:37;3.40;95.00
43808;DHT22;29438;50.664;10.098;2023-12-20T05:45:04;3.40;95.00
43808;DHT22;29438;50.664;10.098;2023-12-20T05:47:29;3.50;95.20
43808;DHT22;29438;50.664;10.098;2023-12-20T05:49:55;3.50;95.20
43808;DHT22;29438;50.664;10.098;2023-12-20T05:52:20;3.60;95.20
43808;DHT22;29438;50.664;10.098;2023-12-20T05:54:46;3.60;95.30
43808;DHT22;29438;50.664;10.098;2023-12-20T05:57:11;3.60;95.20
43808;DHT22;29438;50.664;10.098;2023-12-20T05:59:37;3.50;95.40
43808;DHT22;29438;50.664;10.098;2023-12-20T06:02:03;3.60;95.50
43808;DHT22;29438;50.664;10.098;2023-12-20T06:04:30;3.60;95.30
43808;DHT22;29438;50.664;10.098;2023-12-20T06:06:55;3.60;95.20
43808;DHT22;29438;50.664;10.098;2023-12-20T06:09:21;3.60;95.20
43808;DHT22;29438;50.664;10.098;2023-12-20T06:11:46;3.50;95.20
43808;DHT22;29438;50.664;10.098;2023-12-20T06:14:12;3.60;95.20
43808;DHT22;29438;50.664;10.098;2023-12-20T06:16:37;3.40;95.10
43808;DHT22;29438;50.664;10.098;2023-12-20T06:19:03;3.50;95.30
43808;DHT22;29438;50.664;10.098;2023-12-20T06:21:28;3.50;95.10
43808;DHT22;29438;50.664;10.098;2023-12-20T06:23:54;3.50;94.80
43808;DHT22;29438;50.664;10.098;2023-12-20T06:26:20;3.30;94.70
43808;DHT22;29438;50.664;10.098;2023-12-20T06:28:45;3.30;94.60
43808;DHT22;29438;50.664;10.098;2023-12-20T06:31:11;3.30;94.70
43808;DHT22;29438;50.664;10.098;2023-12-20T06:33:38;3.30;94.70
43808;DHT22;29438;50.664;10.098;2023-12-20T06:36:06;3.30;94.80
43808;DHT22;29438;50.664;10.098;2023-12-20T06:38:31;3.30;94.80
43808;DHT22;29438;50.664;10.098;2023-12-20T06:40:57;3.30;94.90
43808;DHT22;29438;50.664;10.098;2023-12-20T06:43:23;3.20;94.80
43808;DHT22;29438;50.664;10.098;2023-12-20T06:45:49;3.20;94.90
43808;DHT22;29438;50.664;10.098;2023-12-20T06:48:14;3.20;94.90
43808;DHT22;29438;50.664;10.098;2023-12-20T06:50:40;3.10;94.90
43808;DHT22;29438;50.664;10.098;2023-12-20T06:53:06;3.20;94.90
43808;DHT22;29438;50.664;10.098;2023-12-20T06:55:33;3.10;94.70
43808;DHT22;29438;50.664;10.098;2023-12-20T06:57:59;3.40;95.00
43808;DHT22;29438;50.664;10.098;2023-12-20T07:00:25;3.20;94.40
43808;DHT22;29438;50.664;10.098;2023-12-20T07:02:50;3.10;94.20
43808;DHT22;29438;50.664;10.098;2023-12-20T07:05:17;3.10;94.20
43808;DHT22;29438;50.664;10.098;2023-12-20T07:07:45;3.00;94.10
43808;DHT22;29438;50.664;10.098;2023-12-20T07:10:10;3.00;94.00
43808;DHT22;29438;50.664;10.098;2023-12-20T07:12:36;3.00;93.90
43808;DHT22;29438;50.664;10.098;2023-12-20T07:15:02;3.00;93.90
43808;DHT22;29438;50.664;10.098;2023-12-20T07:17:27;2.90;93.50
43808;DHT22;29438;50.664;10.098;2023-12-20T07:19:53;2.80;93.70
43808;DHT22;29438;50.664;10.098;2023-12-20T07:22:18;2.70;93.60
43808;DHT22;29438;50.664;10.098;2023-12-20T07:24:44;2.50;93.80
43808;DHT22;29438;50.664;10.098;2023-12-20T07:27:09;2.70;94.20
43808;DHT22;29438;50.664;10.098;2023-12-20T07:29:35;2.60;93.80
43808;DHT22;29438;50.664;10.098;2023-12-20T07:32:00;3.00;94.40
43808;DHT22;29438;50.664;10.098;2023-12-20T07:34:26;3.30;94.20
43808;DHT22;29438;50.664;10.098;2023-12-20T07:36:51;3.40;93.70
43808;DHT22;29438;50.664;10.098;2023-12-20T07:39:17;3.20;93.50
43808;DHT22;29438;50.664;10.098;2023-12-20T07:41:42;3.00;93.60
43808;DHT22;29438;50.664;10.098;2023-12-20T07:44:08;3.00;93.60
43808;DHT22;29438;50.664;10.098;2023-12-20T07:46:33;3.00;93.30
43808;DHT22;29438;50.664;10.098;2023-12-20T07:48:59;2.90;93.10
43808;DHT22;29438;50.664;10.098;2023-12-20T07:51:24;2.80;93.30
43808;DHT22;29438;50.664;10.098;2023-12-20T07:53:51;2.90;93.60
43808;DHT22;29438;50.664;10.098;2023-12-20T07:56:18;3.00;93.40
43808;DHT22;29438;50.664;10.098;2023-12-20T07:58:44;3.00;93.30
43808;DHT22;29438;50.664;10.098;2023-12-20T08:01:11;3.00;93.10
43808;DHT22;29438;50.664;10.098;2023-12-20T08:03:36;3.00;92.90
43808;DHT22;29438;50.664;10.098;2023-12-20T08:06:02;3.10;92.80
43808;DHT22;29438;50.664;10.098;2023-12-20T08:08:28;3.10;92.60
43808;DHT22;29438;50.664;10.098;2023-12-20T08:10:54;3.10;92.40
43808;DHT22;29438;50.664;10.098;2023-12-20T08:13:19;3.10;92.30
43808;DHT22;29438;50.664;10.098;2023-12-20T08:15:45;3.20;92.30
43808;DHT22;29438;50.664;10.098;2023-12-20T08:18:10;3.30;92.20
43808;DHT22;29438;50.664;10.098;2023-12-20T08:20:36;3.40;92.00
43808;DHT22;29438;50.664;10.098;2023-12-20T08:23:02;3.50;91.60
43808;DHT22;29438;50.664;10.098;2023-12-20T08:25:27;3.60;91.00
43808;DHT22;29438;50.664;10.098;2023-12-20T08:27:53;3.50;91.10
43808;DHT22;29438;50.664;10.098;2023-12-20T08:30:19;3.40;91.20
43808;DHT22;29438;50.664;10.098;2023-12-20T08:32:50;3.50;91.20
43808;DHT22;29438;50.664;10.098;2023-12-20T08:35:15;4.00;90.70
43808;DHT22;29438;50.664;10.098;2023-12-20T08:37:41;4.60;89.20
43808;DHT22;29438;50.664;10.098;2023-12-20T08:40:07;5.00;88.20
43808;DHT22;29438;50.664;10.098;2023-12-20T08:42:32;5.30;87.40
43808;DHT22;29438;50.664;10.098;2023-12-20T08:44:58;5.00;86.60
43808;DHT22;29438;50.664;10.098;2023-12-20T08:47:24;4.80;86.60
43808;DHT22;29438;50.664;10.098;2023-12-20T08:49:50;4.40;87.10
43808;DHT22;29438;50.664;10.098;2023-12-20T08:52:15;4.30;88.30
43808;DHT22;29438;50.664;10.098;2023-12-20T08:54:41;4.10;88.50
43808;DHT22;29438;50.664;10.098;2023-12-20T08:57:06;3.90;88.80
43808;DHT22;29438;50.664;10.098;2023-12-20T08:59:32;4.00;89.40
43808;DHT22;29438;50.664;10.098;2023-12-20T09:01:58;3.90;89.50
43808;DHT22;29438;50.664;10.098;2023-12-20T09:04:24;3.90;89.60
43808;DHT22;29438;50.664;10.098;2023-12-20T09:06:49;3.90;89.70
43808;DHT22;29438;50.664;10.098;2023-12-20T09:09:15;3.90;90.10
43808;DHT22;29438;50.664;10.098;2023-12-20T09:11:40;3.80;90.40
43808;DHT22;29438;50.664;10.098;2023-12-20T09:14:06;3.80;90.50
43808;DHT22;29438;50.664;10.098;2023-12-20T09:16:31;3.80;90.80
43808;DHT22;29438;50.664;10.098;2023-12-20T09:18:57;3.70;90.90
43808;DHT22;29438;50.664;10.098;2023-12-20T09:21:23;3.80;91.00
43808;DHT22;29438;50.664;10.098;2023-12-20T09:23:49;4.10;91.00
43808;DHT22;29438;50.664;10.098;2023-12-20T09:26:14;4.60;89.80
43808;DHT22;29438;50.664;10.098;2023-12-20T09:28:40;4.80;89.00
43808;DHT22;29438;50.664;10.098;2023-12-20T09:31:06;4.70;87.60
43808;DHT22;29438;50.664;10.098;2023-12-20T09:33:32;4.90;87.70
43808;DHT22;29438;50.664;10.098;2023-12-20T09:35:58;4.90;87.90
43808;DHT22;29438;50.664;10.098;2023-12-20T09:38:23;4.70;88.10
43808;DHT22;29438;50.664;10.098;2023-12-20T09:40:49;4.50;88.80
43808;DHT22;29438;50.664;10.098;2023-12-20T09:43:15;4.30;89.20
43808;DHT22;29438;50.664;10.098;2023-12-20T09:45:42;4.30;89.80
43808;DHT22;29438;50.664;10.098;2023-12-20T09:48:11;4.40;89.60
43808;DHT22;29438;50.664;10.098;2023-12-20T09:50:36;4.50;89.30
43808;DHT22;29438;50.664;10.098;2023-12-20T09:53:02;4.70;89.00
43808;DHT22;29438;50.664;10.098;2023-12-20T09:55:30;4.80;87.90
43808;DHT22;29438;50.664;10.098;2023-12-20T09:57:57;4.70;87.20
43808;DHT22;29438;50.664;10.098;2023-12-20T10:00:23;4.70;88.00
43808;DHT22;29438;50.664;10.098;2023-12-20T10:02:58;5.00;87.70
43808;DHT22;29438;50.664;10.098;2023-12-20T10:05:31;5.50;86.20
43808;DHT22;29438;50.664;10.098;2023-12-20T10:07:58;5.70;85.50
43808;DHT22;29438;50.664;10.098;2023-12-20T10:10:24;5.30;85.30
43808;DHT22;29438;50.664;10.098;2023-12-20T10:13:07;4.80;86.20
43808;DHT22;29438;50.664;10.098;2023-12-20T10:15:35;4.80;86.80
43808;DHT22;29438;50.664;10.098;2023-12-20T10:18:02;4.80;87.50
43808;DHT22;29438;50.664;10.098;2023-12-20T10:20:28;4.70;87.40
43808;DHT22;29438;50.664;10.098;2023-12-20T10:22:55;4.90;87.80
43808;DHT22;29438;50.664;10.098;2023-12-20T10:25:21;5.00;86.80
43808;DHT22;29438;50.664;10.098;2023-12-20T10:27:47;5.10;86.80
43808;DHT22;29438;50.664;10.098;2023-12-20T10:30:13;5.10;86.90
43808;DHT22;29438;50.664;10.098;2023-12-20T10:32:39;5.00;86.70
43808;DHT22;29438;50.664;10.098;2023-12-20T10:35:06;4.80;87.40
43808;DHT22;29438;50.664;10.098;2023-12-20T10:37:35;4.70;87.50
43808;DHT22;29438;50.664;10.098;2023-12-20T10:40:03;4.50;87.60
43808;DHT22;29438;50.664;10.098;2023-12-20T10:42:29;4.50;88.40
43808;DHT22;29438;50.664;10.098;2023-12-20T10:44:56;4.60;88.60
43808;DHT22;29438;50.664;10.098;2023-12-20T10:47:22;4.80;88.70
43808;DHT22;29438;50.664;10.098;2023-12-20T10:49:50;4.80;87.70
43808;DHT22;29438;50.664;10.098;2023-12-20T10:52:17;4.70;88.60
43808;DHT22;29438;50.664;10.098;2023-12-20T10:54:42;4.70;88.20
43808;DHT22;29438;50.664;10.098;2023-12-20T10:57:08;4.80;88.40
43808;DHT22;29438;50.664;10.098;2023-12-20T10:59:36;4.70;87.50
43808;DHT22;29438;50.664;10.098;2023-12-20T11:02:05;4.70;87.80
43808;DHT22;29438;50.664;10.098;2023-12-20T11:08:03;4.50;88.40
43808;DHT22;29438;50.664;10.098;2023-12-20T11:10:35;4.50;88.70
43808;DHT22;29438;50.664;10.098;2023-12-20T11:13:12;4.40;88.60
43808;DHT22;29438;50.664;10.098;2023-12-20T11:15:42;4.50;88.70
43808;DHT22;29438;50.664;10.098;2023-12-20T11:18:09;4.50;88.70
43808;DHT22;29438;50.664;10.098;2023-12-20T11:20:39;4.40;88.40
43808;DHT22;29438;50.664;10.098;2023-12-20T11:23:06;4.50;88.30
43808;DHT22;29438;50.664;10.098;2023-12-20T11:25:53;4.30;88.40
43808;DHT22;29438;50.664;10.098;2023-12-20T11:28:23;4.50;88.50
43808;DHT22;29438;50.664;10.098;2023-12-20T11:30:51;4.40;88.60
43808;DHT22;29438;50.664;10.098;2023-12-20T11:33:24;4.50;88.70
43808;DHT22;29438;50.664;10.098;2023-12-20T11:35:50;4.60;88.30
43808;DHT22;29438;50.664;10.098;2023-12-20T11:38:16;4.60;87.50
43808;DHT22;29438;50.664;10.098;2023-12-20T11:40:42;4.60;88.10
43808;DHT22;29438;50.664;10.098;2023-12-20T11:43:09;4.60;88.00
43808;DHT22;29438;50.664;10.098;2023-12-20T11:45:34;4.60;88.00
43808;DHT22;29438;50.664;10.098;2023-12-20T11:48:01;4.70;88.00
43808;DHT22;29438;50.664;10.098;2023-12-20T11:50:27;4.50;88.20
43808;DHT22;29438;50.664;10.098;2023-12-20T11:52:53;4.40;88.00
43808;DHT22;29438;50.664;10.098;2023-12-20T11:55:24;4.40;88.40
43808;DHT22;29438;50.664;10.098;2023-12-20T11:57:52;4.50;88.40
43808;DHT22;29438;50.664;10.098;2023-12-20T12:00:19;4.40;88.50
43808;DHT22;29438;50.664;10.098;2023-12-20T12:02:58;4.40;88.50
43808;DHT22;29438;50.664;10.098;2023-12-20T12:05:23;4.50;88.50
43808;DHT22;29438;50.664;10.098;2023-12-20T12:07:49;4.30;88.50
43808;DHT22;29438;50.664;10.098;2023-12-20T12:10:15;4.30;88.60
43808;DHT22;29438;50.664;10.098;2023-12-20T12:12:40;4.40;88.90
43808;DHT22;29438;50.664;10.098;2023-12-20T12:15:06;4.50;88.70
43808;DHT22;29438;50.664;10.098;2023-12-20T12:17:32;4.50;88.00
43808;DHT22;29438;50.664;10.098;2023-12-20T12:20:05;4.50;88.10
43808;DHT22;29438;50.664;10.098;2023-12-20T12:22:31;4.60;88.40
43808;DHT22;29438;50.664;10.098;2023-12-20T12:24:59;4.60;88.50
43808;DHT22;29438;50.664;10.098;2023-12-20T12:27:25;4.60;88.20
43808;DHT22;29438;50.664;10.098;2023-12-20T12:30:04;4.70;88.40
43808;DHT22;29438;50.664;10.098;2023-12-20T12:32:32;4.50;87.60
43808;DHT22;29438;50.664;10.098;2023-12-20T12:34:58;4.50;88.00
43808;DHT22;29438;50.664;10.098;2023-12-20T12:37:23;4.50;88.20
43808;DHT22;29438;50.664;10.098;2023-12-20T12:39:49;4.50;88.10
43808;DHT22;29438;50.664;10.098;2023-12-20T12:42:15;4.50;88.40
43808;DHT22;29438;50.664;10.098;2023-12-20T12:44:40;4.50;87.90
43808;DHT22;29438;50.664;10.098;2023-12-20T12:47:06;4.50;87.70
43808;DHT22;29438;50.664;10.098;2023-12-20T12:49:32;4.70;87.90
43808;DHT22;29438;50.664;10.098;2023-12-20T12:51:57;4.70;87.70
43808;DHT22;29438;50.664;10.098;2023-12-20T12:54:24;4.70;87.30
43808;DHT22;29438;50.664;10.098;2023-12-20T12:56:49;4.60;87.70
43808;DHT22;29438;50.664;10.098;2023-12-20T12:59:16;4.60;88.00
43808;DHT22;29438;50.664;10.098;2023-12-20T13:01:41;4.60;87.90
43808;DHT22;29438;50.664;10.098;2023-12-20T13:04:07;4.60;87.90
43808;DHT22;29438;50.664;10.098;2023-12-20T13:06:36;4.60;88.10
43808;DHT22;29438;50.664;10.098;2023-12-20T13:09:03;4.60;88.20
43808;DHT22;29438;50.664;10.098;2023-12-20T13:11:30;4.60;87.50
43808;DHT22;29438;50.664;10.098;2023-12-20T13:13:57;4.60;87.60
43808;DHT22;29438;50.664;10.098;2023-12-20T13:16:23;4.60;88.00
43808;DHT22;29438;50.664;10.098;2023-12-20T13:18:49;4.60;87.70
43808;DHT22;29438;50.664;10.098;2023-12-20T13:21:15;4.60;87.70
43808;DHT22;29438;50.664;10.098;2023-12-20T13:23:42;4.60;87.70
43808;DHT22;29438;50.664;10.098;2023-12-20T13:26:07;4.50;88.10
43808;DHT22;29438;50.664;10.098;2023-12-20T13:28:33;4.50;88.50
43808;DHT22;29438;50.664;10.098;2023-12-20T13:30:58;4.50;88.40
43808;DHT22;29438;50.664;10.098;2023-12-20T13:33:25;4.50;88.40
43808;DHT22;29438;50.664;10.098;2023-12-20T13:35:50;4.50;88.30
43808;DHT22;29438;50.664;10.098;2023-12-20T13:38:16;4.50;88.10
43808;DHT22;29438;50.664;10.098;2023-12-20T13:40:42;4.50;88.30
43808;DHT22;29438;50.664;10.098;2023-12-20T13:43:08;4.50;88.40
43808;DHT22;29438;50.664;10.098;2023-12-20T13:45:33;4.50;88.60
43808;DHT22;29438;50.664;10.098;2023-12-20T13:47:59;4.50;88.60
43808;DHT22;29438;50.664;10.098;2023-12-20T13:50:24;4.40;88.50
43808;DHT22;29438;50.664;10.098;2023-12-20T13:52:51;4.40;88.50
43808;DHT22;29438;50.664;10.098;2023-12-20T13:55:17;4.40;88.70
43808;DHT22;29438;50.664;10.098;2023-12-20T13:57:42;4.40;88.50
43808;DHT22;29438;50.664;10.098;2023-12-20T14:00:08;4.30;88.50
43808;DHT22;29438;50.664;10.098;2023-12-20T14:02:42;4.30;88.60
43808;DHT22;29438;50.664;10.098;2023-12-20T14:05:09;4.30;88.80
43808;DHT22;29438;50.664;10.098;2023-12-20T14:07:35;4.30;88.70
43808;DHT22;29438;50.664;10.098;2023-12-20T14:10:00;4.30;88.80
43808;DHT22;29438;50.664;10.098;2023-12-20T14:12:26;4.30;89.00
43808;DHT22;29438;50.664;10.098;2023-12-20T14:14:51;4.30;88.80
43808;DHT22;29438;50.664;10.098;2023-12-20T14:17:17;4.30;89.20
43808;DHT22;29438;50.664;10.098;2023-12-20T14:19:43;4.30;89.10
43808;DHT22;29438;50.664;10.098;2023-12-20T14:22:09;4.30;89.10
43808;DHT22;29438;50.664;10.098;2023-12-20T14:24:35;4.30;89.40
43808;DHT22;29438;50.664;10.098;2023-12-20T14:27:01;4.30;89.50
43808;DHT22;29438;50.664;10.098;2023-12-20T14:29:27;4.20;89.60
43808;DHT22;29438;50.664;10.098;2023-12-20T14:31:52;4.20;89.70
43808;DHT22;29438;50.664;10.098;2023-12-20T14:34:18;4.20;89.50
43808;DHT22;29438;50.664;10.098;2023-12-20T14:36:43;4.20;89.50
43808;DHT22;29438;50.664;10.098;2023-12-20T14:39:09;4.20;89.60
43808;DHT22;29438;50.664;10.098;2023-12-20T14:41:38;4.30;89.50
43808;DHT22;29438;50.664;10.098;2023-12-20T14:44:05;4.30;89.50
43808;DHT22;29438;50.664;10.098;2023-12-20T14:46:31;4.30;89.40
43808;DHT22;29438;50.664;10.098;2023-12-20T14:48:56;4.30;89.20
43808;DHT22;29438;50.664;10.098;2023-12-20T14:51:21;4.30;89.20
43808;DHT22;29438;50.664;10.098;2023-12-20T14:53:48;4.30;89.40
43808;DHT22;29438;50.664;10.098;2023-12-20T14:56:13;4.30;89.50
43808;DHT22;29438;50.664;10.098;2023-12-20T14:58:40;4.20;89.50
43808;DHT22;29438;50.664;10.098;2023-12-20T15:01:05;4.20;89.60
43808;DHT22;29438;50.664;10.098;2023-12-20T15:03:34;4.20;89.40
43808;DHT22;29438;50.664;10.098;2023-12-20T15:06:00;4.20;89.60
43808;DHT22;29438;50.664;10.098;2023-12-20T15:08:26;4.20;89.70
43808;DHT22;29438;50.664;10.098;2023-12-20T15:10:51;4.20;89.90
43808;DHT22;29438;50.664;10.098;2023-12-20T15:13:17;4.20;90.00
43808;DHT22;29438;50.664;10.098;2023-12-20T15:15:42;4.20;90.00
43808;DHT22;29438;50.664;10.098;2023-12-20T15:18:08;4.20;90.00
43808;DHT22;29438;50.664;10.098;2023-12-20T15:20:33;4.20;90.00
43808;DHT22;29438;50.664;10.098;2023-12-20T15:22:59;4.20;90.20
43808;DHT22;29438;50.664;10.098;2023-12-20T15:25:31;4.20;90.30